createdAt,value
2023-04-26T00:00:45.390Z,0.00
2023-04-26T00:01:45.362Z,0.00
2023-04-26T00:02:45.399Z,0.00
2023-04-26T00:03:45.566Z,0.00
2023-04-26T00:04:45.520Z,0.00
2023-04-26T00:05:45.406Z,0.00
2023-04-26T00:06:45.342Z,0.00
2023-04-26T00:07:45.285Z,0.00
2023-04-26T00:08:45.276Z,0.00
2023-04-26T00:09:45.266Z,0.00
2023-04-26T00:10:45.256Z,0.00
2023-04-26T00:11:45.234Z,0.00
2023-04-26T00:12:45.254Z,0.00
2023-04-26T00:13:45.226Z,0.00
2023-04-26T00:14:45.195Z,0.00
2023-04-26T00:15:45.204Z,0.00
2023-04-26T00:16:45.268Z,0.00
2023-04-26T00:17:45.194Z,0.00
2023-04-26T00:18:45.170Z,0.00
2023-04-26T00:19:45.168Z,0.00
2023-04-26T00:20:45.191Z,0.00
2023-04-26T00:21:45.104Z,0.00
2023-04-26T00:22:45.098Z,0.00
2023-04-26T00:23:45.080Z,0.00
2023-04-26T00:24:45.081Z,0.00
2023-04-26T00:25:45.055Z,0.00
2023-04-26T00:26:45.040Z,0.00
2023-04-26T00:27:45.122Z,0.00
2023-04-26T00:28:45.032Z,0.00
2023-04-26T00:29:45.004Z,0.00
2023-04-26T00:30:45.060Z,0.00
2023-04-26T00:31:45.123Z,0.00
2023-04-26T00:32:45.028Z,0.00
2023-04-26T00:33:44.965Z,0.00
2023-04-26T00:34:44.960Z,0.00
2023-04-26T00:35:44.943Z,0.00
2023-04-26T00:36:44.995Z,0.00
2023-04-26T00:37:44.906Z,0.00
2023-04-26T00:38:44.911Z,0.00
2023-04-26T00:39:44.893Z,0.00
2023-04-26T00:40:44.868Z,0.00
2023-04-26T00:41:44.875Z,0.00
2023-04-26T00:42:44.851Z,0.00
2023-04-26T00:43:44.927Z,0.00
2023-04-26T00:44:44.831Z,0.00
2023-04-26T00:45:44.836Z,0.00
2023-04-26T00:46:44.799Z,0.00
2023-04-26T00:47:44.858Z,0.00
2023-04-26T00:48:44.877Z,0.00
2023-04-26T00:49:44.760Z,0.00
2023-04-26T00:50:44.760Z,0.00
2023-04-26T00:51:44.716Z,0.00
2023-04-26T00:52:44.772Z,0.00
2023-04-26T00:53:44.692Z,0.00
2023-04-26T00:54:44.736Z,0.00
2023-04-26T00:55:44.843Z,0.00
2023-04-26T00:56:44.646Z,0.00
2023-04-26T00:57:44.659Z,0.00
2023-04-26T00:58:44.646Z,0.00
2023-04-26T00:59:44.658Z,0.00
2023-04-26T01:00:44.641Z,0.00
2023-04-26T01:01:44.662Z,0.00
2023-04-26T01:02:44.719Z,0.00
2023-04-26T01:03:44.827Z,0.00
2023-04-26T01:04:44.575Z,0.00
2023-04-26T01:05:44.546Z,0.00
2023-04-26T01:06:44.537Z,0.00
2023-04-26T01:07:44.522Z,0.00
2023-04-26T01:08:44.499Z,0.00
2023-04-26T01:09:44.505Z,0.00
2023-04-26T01:10:44.519Z,0.00
2023-04-26T01:11:44.506Z,0.00
2023-04-26T01:12:44.468Z,0.00
2023-04-26T01:13:44.465Z,0.00
2023-04-26T01:14:44.420Z,0.00
2023-04-26T01:15:44.432Z,0.00
2023-04-26T01:16:44.477Z,0.00
2023-04-26T01:17:44.419Z,0.00
2023-04-26T01:18:44.390Z,0.00
2023-04-26T01:19:44.367Z,0.00
2023-04-26T01:20:44.353Z,0.00
2023-04-26T01:21:44.364Z,0.00
2023-04-26T01:22:44.327Z,0.00
2023-04-26T01:23:44.303Z,0.00
2023-04-26T01:24:44.289Z,0.00
2023-04-26T01:25:44.292Z,0.00
2023-04-26T01:26:44.290Z,0.00
2023-04-26T01:27:44.293Z,0.00
2023-04-26T01:28:44.257Z,0.00
2023-04-26T01:29:44.232Z,0.00
2023-04-26T01:30:44.227Z,0.00
2023-04-26T01:31:44.220Z,0.00
2023-04-26T01:32:44.268Z,0.00
2023-04-26T01:33:44.226Z,0.00
2023-04-26T01:34:44.210Z,0.00
2023-04-26T01:35:44.156Z,0.00
2023-04-26T01:36:44.167Z,0.00
2023-04-26T01:37:44.150Z,0.00
2023-04-26T01:38:44.152Z,0.00
2023-04-26T01:39:44.109Z,0.00
2023-04-26T01:40:44.098Z,0.00
2023-04-26T01:41:44.087Z,0.00
2023-04-26T01:42:44.081Z,0.00
2023-04-26T01:43:44.063Z,0.00
2023-04-26T01:44:44.059Z,0.00
2023-04-26T01:45:44.030Z,0.00
2023-04-26T01:46:44.173Z,0.00
2023-04-26T01:47:44.033Z,0.00
2023-04-26T01:48:43.998Z,0.00
2023-04-26T01:49:43.990Z,0.00
2023-04-26T01:50:44.012Z,0.00
2023-04-26T01:51:43.967Z,0.00
2023-04-26T01:52:43.942Z,0.00
2023-04-26T01:53:43.934Z,0.00
2023-04-26T01:54:43.919Z,0.00
2023-04-26T01:55:43.911Z,0.00
2023-04-26T01:56:43.918Z,0.00
2023-04-26T01:57:43.887Z,0.00
2023-04-26T01:58:43.866Z,0.00
2023-04-26T01:59:43.849Z,0.00
2023-04-26T02:00:43.843Z,0.00
2023-04-26T02:01:43.892Z,0.00
2023-04-26T02:02:43.934Z,0.00
2023-04-26T02:03:43.866Z,0.00
2023-04-26T02:04:43.820Z,0.00
2023-04-26T02:05:43.791Z,0.00
2023-04-26T02:06:43.783Z,0.00
2023-04-26T02:07:43.796Z,0.00
2023-04-26T02:08:43.740Z,0.00
2023-04-26T02:09:43.723Z,0.00
2023-04-26T02:10:43.707Z,0.00
2023-04-26T02:11:43.734Z,0.00
2023-04-26T02:12:43.701Z,0.00
2023-04-26T02:13:43.664Z,0.00
2023-04-26T02:14:43.663Z,0.00
2023-04-26T02:15:43.658Z,0.00
2023-04-26T02:16:43.641Z,0.00
2023-04-26T02:17:43.653Z,0.00
2023-04-26T02:18:43.603Z,0.00
2023-04-26T02:19:43.598Z,0.00
2023-04-26T02:20:43.610Z,0.00
2023-04-26T02:21:43.567Z,0.00
2023-04-26T02:22:43.563Z,0.00
2023-04-26T02:23:43.649Z,0.00
2023-04-26T02:24:43.539Z,0.00
2023-04-26T02:25:43.524Z,0.00
2023-04-26T02:26:43.496Z,0.00
2023-04-26T02:27:43.498Z,0.00
2023-04-26T02:28:43.502Z,0.00
2023-04-26T02:29:44.755Z,0.00
2023-04-26T02:30:43.487Z,0.00
2023-04-26T02:31:43.513Z,0.00
2023-04-26T02:32:43.455Z,0.00
2023-04-26T02:33:43.438Z,0.00
2023-04-26T02:34:43.416Z,0.00
2023-04-26T02:35:43.398Z,0.00
2023-04-26T02:36:43.372Z,0.00
2023-04-26T02:37:43.363Z,0.00
2023-04-26T02:38:43.350Z,0.00
2023-04-26T02:39:43.362Z,0.00
2023-04-26T02:40:43.330Z,0.00
2023-04-26T02:41:43.309Z,0.00
2023-04-26T02:42:43.296Z,0.00
2023-04-26T02:43:43.293Z,0.00
2023-04-26T02:44:43.278Z,0.00
2023-04-26T02:45:43.294Z,0.00
2023-04-26T02:46:43.292Z,0.00
2023-04-26T02:47:43.251Z,0.00
2023-04-26T02:48:43.223Z,0.00
2023-04-26T02:49:43.211Z,0.00
2023-04-26T02:50:43.195Z,0.00
2023-04-26T02:51:43.202Z,0.00
2023-04-26T02:52:43.183Z,0.00
2023-04-26T02:53:43.164Z,0.00
2023-04-26T02:54:43.147Z,0.00
2023-04-26T02:55:43.139Z,0.00
2023-04-26T02:56:43.150Z,0.00
2023-04-26T02:57:43.128Z,0.00
2023-04-26T02:58:43.105Z,0.00
2023-04-26T02:59:43.083Z,0.00
2023-04-26T03:00:43.096Z,0.00
2023-04-26T03:01:43.069Z,0.00
2023-04-26T03:02:43.178Z,0.00
2023-04-26T03:03:43.120Z,0.00
2023-04-26T03:04:43.040Z,0.00
2023-04-26T03:05:43.012Z,0.00
2023-04-26T03:06:43.011Z,0.00
2023-04-26T03:07:42.984Z,0.00
2023-04-26T03:08:42.993Z,0.00
2023-04-26T03:09:42.973Z,0.00
2023-04-26T03:10:42.953Z,0.00
2023-04-26T03:11:42.927Z,0.00
2023-04-26T03:12:42.933Z,0.00
2023-04-26T03:13:42.911Z,0.00
2023-04-26T03:14:42.906Z,0.00
2023-04-26T03:15:42.929Z,0.00
2023-04-26T03:16:42.913Z,0.00
2023-04-26T03:17:42.858Z,0.00
2023-04-26T03:18:42.834Z,0.00
2023-04-26T03:19:42.833Z,0.00
2023-04-26T03:20:42.842Z,0.00
2023-04-26T03:21:42.811Z,0.00
2023-04-26T03:22:42.804Z,0.00
2023-04-26T03:23:42.795Z,0.00
2023-04-26T03:24:42.773Z,0.00
2023-04-26T03:25:42.762Z,0.00
2023-04-26T03:26:42.776Z,0.00
2023-04-26T03:27:42.730Z,0.00
2023-04-26T03:28:42.746Z,0.00
2023-04-26T03:29:44.117Z,0.00
2023-04-26T03:30:42.715Z,0.00
2023-04-26T03:31:42.735Z,0.00
2023-04-26T03:32:42.717Z,0.00
2023-04-26T03:33:42.679Z,0.00
2023-04-26T03:34:42.649Z,0.00
2023-04-26T03:35:42.645Z,0.00
2023-04-26T03:36:42.626Z,0.00
2023-04-26T03:37:42.609Z,0.00
2023-04-26T03:38:42.620Z,0.00
2023-04-26T03:39:42.585Z,0.00
2023-04-26T03:40:42.590Z,4.00
2023-04-26T03:41:42.559Z,4.00
2023-04-26T03:42:42.580Z,0.00
2023-04-26T03:43:42.539Z,4.00
2023-04-26T03:44:42.592Z,4.00
2023-04-26T03:45:42.566Z,4.00
2023-04-26T03:46:42.498Z,8.00
2023-04-26T03:47:42.499Z,4.00
2023-04-26T03:48:42.477Z,4.00
2023-04-26T03:49:42.459Z,4.00
2023-04-26T03:50:42.467Z,8.00
2023-04-26T03:51:42.452Z,12.00
2023-04-26T03:52:42.436Z,12.00
2023-04-26T03:53:42.432Z,16.00
2023-04-26T03:54:42.406Z,20.00
2023-04-26T03:55:42.392Z,24.00
2023-04-26T03:56:42.399Z,24.00
2023-04-26T03:57:42.355Z,32.00
2023-04-26T03:58:42.358Z,36.00
2023-04-26T03:59:42.336Z,40.00
2023-04-26T04:00:42.320Z,48.00
2023-04-26T04:01:42.343Z,56.00
2023-04-26T04:02:42.566Z,64.00
2023-04-26T04:03:42.622Z,76.00
2023-04-26T04:04:42.594Z,84.00
2023-04-26T04:05:42.347Z,96.00
2023-04-26T04:06:42.252Z,116.00
2023-04-26T04:07:42.261Z,128.00
2023-04-26T04:08:42.221Z,140.00
2023-04-26T04:09:42.228Z,156.00
2023-04-26T04:10:42.215Z,172.00
2023-04-26T04:11:42.208Z,196.00
2023-04-26T04:12:42.187Z,224.00
2023-04-26T04:13:42.193Z,248.00
2023-04-26T04:14:42.164Z,284.00
2023-04-26T04:15:42.137Z,312.00
2023-04-26T04:16:42.136Z,336.00
2023-04-26T04:17:42.110Z,364.00
2023-04-26T04:18:42.103Z,392.00
2023-04-26T04:19:42.109Z,436.00
2023-04-26T04:20:42.086Z,484.00
2023-04-26T04:21:42.121Z,532.00
2023-04-26T04:22:42.045Z,564.00
2023-04-26T04:23:42.035Z,596.00
2023-04-26T04:24:42.019Z,624.00
2023-04-26T04:25:42.026Z,652.00
2023-04-26T04:26:41.995Z,692.00
2023-04-26T04:27:41.982Z,728.00
2023-04-26T04:28:41.972Z,768.00
2023-04-26T04:29:41.971Z,820.00
2023-04-26T04:30:41.941Z,896.00
2023-04-26T04:31:42.098Z,1000.00
2023-04-26T04:32:41.966Z,1132.00
2023-04-26T04:33:41.915Z,1272.00
2023-04-26T04:34:41.916Z,1420.00
2023-04-26T04:35:41.894Z,1452.00
2023-04-26T04:36:41.885Z,1436.00
2023-04-26T04:37:41.888Z,1428.00
2023-04-26T04:38:41.849Z,1480.00
2023-04-26T04:39:41.842Z,1560.00
2023-04-26T04:40:41.814Z,1632.00
2023-04-26T04:41:41.814Z,1724.00
2023-04-26T04:42:41.816Z,1784.00
2023-04-26T04:43:41.803Z,1764.00
2023-04-26T04:44:41.773Z,1724.00
2023-04-26T04:45:41.766Z,1720.00
2023-04-26T04:46:41.775Z,1768.00
2023-04-26T04:47:41.806Z,1856.00
2023-04-26T04:48:41.746Z,1876.00
2023-04-26T04:49:41.719Z,1912.00
2023-04-26T04:50:41.706Z,1900.00
2023-04-26T04:51:41.698Z,1888.00
2023-04-26T04:52:41.684Z,1864.00
2023-04-26T04:53:41.649Z,1832.00
2023-04-26T04:54:41.670Z,1804.00
2023-04-26T04:55:41.634Z,1852.00
2023-04-26T04:56:41.629Z,1924.00
2023-04-26T04:57:42.894Z,2000.00
2023-04-26T04:58:41.589Z,2092.00
2023-04-26T04:59:41.583Z,2184.00
2023-04-26T05:00:41.589Z,2288.00
2023-04-26T05:01:41.567Z,2408.00
2023-04-26T05:02:41.765Z,2532.00
2023-04-26T05:03:41.623Z,2676.00
2023-04-26T05:04:41.726Z,2840.00
2023-04-26T05:05:41.534Z,3044.00
2023-04-26T05:06:41.539Z,3236.00
2023-04-26T05:07:41.492Z,3336.00
2023-04-26T05:08:41.476Z,3296.00
2023-04-26T05:09:41.466Z,3188.00
2023-04-26T05:10:41.442Z,3112.00
2023-04-26T05:11:41.438Z,3072.00
2023-04-26T05:12:41.435Z,3048.00
2023-04-26T05:13:41.407Z,3076.00
2023-04-26T05:14:41.397Z,3136.00
2023-04-26T05:15:41.377Z,3168.00
2023-04-26T05:16:41.405Z,3208.00
2023-04-26T05:17:41.406Z,3292.00
2023-04-26T05:18:41.371Z,3460.00
2023-04-26T05:19:41.369Z,3936.00
2023-04-26T05:20:41.336Z,3920.00
2023-04-26T05:21:41.327Z,4156.00
2023-04-26T05:22:41.351Z,4260.00
2023-04-26T05:23:41.289Z,4384.00
2023-04-26T05:24:41.287Z,4528.00
2023-04-26T05:25:41.256Z,4676.00
2023-04-26T05:26:41.253Z,4832.00
2023-04-26T05:27:41.242Z,5012.00
2023-04-26T05:28:41.224Z,5168.00
2023-04-26T05:29:41.209Z,5368.00
2023-04-26T05:30:41.222Z,5540.00
2023-04-26T05:31:41.219Z,5672.00
2023-04-26T05:32:41.214Z,5700.00
2023-04-26T05:33:41.171Z,5480.00
2023-04-26T05:34:41.169Z,4856.00
2023-04-26T05:35:41.154Z,4704.00
2023-04-26T05:36:41.150Z,5388.00
2023-04-26T05:37:41.116Z,5492.00
2023-04-26T05:38:41.118Z,5876.00
2023-04-26T05:39:41.105Z,6068.00
2023-04-26T05:40:41.064Z,6004.00
2023-04-26T05:41:41.148Z,6036.00
2023-04-26T05:42:41.064Z,6284.00
2023-04-26T05:43:41.037Z,6316.00
2023-04-26T05:44:41.085Z,6224.00
2023-04-26T05:45:41.036Z,5504.00
2023-04-26T05:46:40.993Z,5404.00
2023-04-26T05:47:41.016Z,5876.00
2023-04-26T05:48:41.001Z,6156.00
2023-04-26T05:49:40.977Z,5676.00
2023-04-26T05:50:40.947Z,5516.00
2023-04-26T05:51:40.932Z,5892.00
2023-04-26T05:52:40.945Z,6680.00
2023-04-26T05:53:40.979Z,7220.00
2023-04-26T05:54:40.922Z,7144.00
2023-04-26T05:55:40.868Z,7404.00
2023-04-26T05:56:40.856Z,7436.00
2023-04-26T05:57:40.902Z,7888.00
2023-04-26T05:58:40.843Z,7860.00
2023-04-26T05:59:40.841Z,8192.00
2023-04-26T06:00:40.821Z,7844.00
2023-04-26T06:01:40.793Z,8680.00
2023-04-26T06:02:40.961Z,8892.00
2023-04-26T06:03:40.944Z,9008.00
2023-04-26T06:04:40.920Z,9436.00
2023-04-26T06:05:40.884Z,9944.00
2023-04-26T06:06:40.805Z,10732.00
2023-04-26T06:07:40.727Z,11968.00
2023-04-26T06:08:40.724Z,12992.00
2023-04-26T06:09:40.693Z,13352.00
2023-04-26T06:10:40.707Z,12632.00
2023-04-26T06:11:40.664Z,11748.00
2023-04-26T06:12:40.684Z,12532.00
2023-04-26T06:13:40.665Z,14104.00
2023-04-26T06:14:40.662Z,14624.00
2023-04-26T06:15:40.619Z,13784.00
2023-04-26T06:16:43.541Z,13340.00
2023-04-26T06:17:40.603Z,13080.00
2023-04-26T06:18:40.597Z,13476.00
2023-04-26T06:19:40.562Z,14168.00
2023-04-26T06:20:40.562Z,15168.00
2023-04-26T06:21:40.544Z,15264.00
2023-04-26T06:22:40.553Z,13680.00
2023-04-26T06:23:40.522Z,12488.00
2023-04-26T06:24:40.499Z,11492.00
2023-04-26T06:25:40.489Z,12128.00
2023-04-26T06:26:40.484Z,13460.00
2023-04-26T06:27:40.470Z,14452.00
2023-04-26T06:28:42.230Z,15328.00
2023-04-26T06:29:40.444Z,14880.00
2023-04-26T06:30:40.458Z,14324.00
2023-04-26T06:31:40.576Z,14528.00
2023-04-26T06:32:40.541Z,14464.00
2023-04-26T06:33:40.410Z,13492.00
2023-04-26T06:34:40.406Z,12652.00
2023-04-26T06:35:40.390Z,12708.00
2023-04-26T06:36:40.350Z,13440.00
2023-04-26T06:37:40.337Z,13980.00
2023-04-26T06:38:40.331Z,13808.00
2023-04-26T06:39:40.362Z,14104.00
2023-04-26T06:40:40.324Z,14624.00
2023-04-26T06:41:40.280Z,13788.00
2023-04-26T06:42:40.449Z,13380.00
2023-04-26T06:43:40.314Z,13484.00
2023-04-26T06:44:40.265Z,13548.00
2023-04-26T06:45:41.512Z,12768.00
2023-04-26T06:46:40.376Z,12448.00
2023-04-26T06:47:40.241Z,12480.00
2023-04-26T06:48:40.205Z,13708.00
2023-04-26T06:49:40.196Z,19456.00
2023-04-26T06:50:40.169Z,24160.00
2023-04-26T06:51:40.175Z,23712.00
2023-04-26T06:52:40.154Z,20608.00
2023-04-26T06:53:40.133Z,21184.00
2023-04-26T06:54:53.628Z,18816.00
2023-04-26T06:55:40.133Z,16640.00
2023-04-26T06:56:40.106Z,14712.00
2023-04-26T06:57:40.113Z,15328.00
2023-04-26T06:58:40.097Z,16352.00
2023-04-26T06:59:40.076Z,18880.00
2023-04-26T07:00:40.060Z,21024.00
2023-04-26T07:01:40.093Z,20992.00
2023-04-26T07:02:40.126Z,23072.00
2023-04-26T07:03:40.418Z,23488.00
2023-04-26T07:04:40.202Z,22016.00
2023-04-26T07:05:40.275Z,21696.00
2023-04-26T07:06:39.970Z,21472.00
2023-04-26T07:07:39.968Z,21152.00
2023-04-26T07:08:39.946Z,18944.00
2023-04-26T07:09:39.956Z,16480.00
2023-04-26T07:10:39.924Z,16064.00
2023-04-26T07:11:39.903Z,17344.00
2023-04-26T07:12:39.942Z,20256.00
2023-04-26T07:13:39.919Z,20960.00
2023-04-26T07:14:39.875Z,17184.00
2023-04-26T07:15:39.875Z,13612.00
2023-04-26T07:16:39.859Z,11480.00
2023-04-26T07:17:39.871Z,10808.00
2023-04-26T07:18:39.810Z,11548.00
2023-04-26T07:19:39.808Z,12300.00
2023-04-26T07:20:39.809Z,12148.00
2023-04-26T07:21:39.784Z,12012.00
2023-04-26T07:22:39.758Z,11608.00
2023-04-26T07:23:39.750Z,11156.00
2023-04-26T07:24:39.734Z,11648.00
2023-04-26T07:25:39.730Z,12664.00
2023-04-26T07:26:39.739Z,13264.00
2023-04-26T07:27:39.696Z,13452.00
2023-04-26T07:28:39.700Z,13648.00
2023-04-26T07:29:39.678Z,13536.00
2023-04-26T07:30:39.650Z,13360.00
2023-04-26T07:31:39.678Z,13424.00
2023-04-26T07:32:39.702Z,14968.00
2023-04-26T07:33:39.695Z,17824.00
2023-04-26T07:34:39.607Z,23264.00
2023-04-26T07:35:39.598Z,35456.00
2023-04-26T07:36:39.638Z,31040.00
2023-04-26T07:37:39.601Z,31136.00
2023-04-26T07:38:39.558Z,30944.00
2023-04-26T07:39:39.560Z,21184.00
2023-04-26T07:40:39.558Z,23200.00
2023-04-26T07:41:41.087Z,34240.00
2023-04-26T07:42:39.549Z,34496.00
2023-04-26T07:43:39.537Z,42624.00
2023-04-26T07:44:39.482Z,62912.00
2023-04-26T07:45:39.497Z,26880.00
2023-04-26T07:46:39.469Z,23840.00
2023-04-26T07:47:39.482Z,24160.00
2023-04-26T07:48:39.468Z,23072.00
2023-04-26T07:49:39.409Z,20896.00
2023-04-26T07:50:39.402Z,19552.00
2023-04-26T07:51:39.393Z,20768.00
2023-04-26T07:52:39.392Z,25984.00
2023-04-26T07:53:39.375Z,26976.00
2023-04-26T07:54:39.385Z,28320.00
2023-04-26T07:55:39.361Z,31200.00
2023-04-26T07:56:39.363Z,36768.00
2023-04-26T07:57:39.353Z,38272.00
2023-04-26T07:58:39.505Z,48096.00
2023-04-26T07:59:39.278Z,44288.00
2023-04-26T08:00:39.296Z,39328.00
2023-04-26T08:01:39.326Z,36640.00
2023-04-26T08:02:45.130Z,37632.00
2023-04-26T08:03:39.412Z,39264.00
2023-04-26T08:04:39.646Z,44608.00
2023-04-26T08:05:39.590Z,26528.00
2023-04-26T08:06:39.240Z,21536.00
2023-04-26T08:07:39.186Z,20736.00
2023-04-26T08:08:39.186Z,18080.00
2023-04-26T08:09:39.173Z,15840.00
2023-04-26T08:10:39.184Z,15424.00
2023-04-26T08:11:39.195Z,13208.00
2023-04-26T08:12:39.198Z,11416.00
2023-04-26T08:13:40.060Z,10688.00
2023-04-26T08:14:39.099Z,10292.00
2023-04-26T08:15:39.123Z,10332.00
2023-04-26T08:16:39.111Z,10908.00
2023-04-26T08:17:39.234Z,12116.00
2023-04-26T08:18:39.047Z,13276.00
2023-04-26T08:19:39.039Z,14160.00
2023-04-26T08:20:39.026Z,14508.00
2023-04-26T08:21:39.003Z,15296.00
2023-04-26T08:22:39.019Z,16864.00
2023-04-26T08:23:39.004Z,19456.00
2023-04-26T08:24:38.997Z,20608.00
2023-04-26T08:25:38.956Z,20672.00
2023-04-26T08:26:39.003Z,21856.00
2023-04-26T08:27:38.936Z,22304.00
2023-04-26T08:28:38.917Z,22368.00
2023-04-26T08:29:38.940Z,24096.00
2023-04-26T08:30:38.918Z,27520.00
2023-04-26T08:31:38.934Z,34144.00
2023-04-26T08:32:38.892Z,34176.00
2023-04-26T08:33:38.923Z,49760.00
2023-04-26T08:34:38.891Z,36864.00
2023-04-26T08:35:38.827Z,86624.00
2023-04-26T08:36:38.839Z,93824.00
2023-04-26T08:37:38.813Z,87840.00
2023-04-26T08:38:38.801Z,32768.00
2023-04-26T08:39:38.791Z,29760.00
2023-04-26T08:40:38.795Z,28352.00
2023-04-26T08:41:38.762Z,32864.00
2023-04-26T08:42:38.759Z,35584.00
2023-04-26T08:43:38.741Z,39040.00
2023-04-26T08:44:38.752Z,56544.00
2023-04-26T08:45:38.708Z,29184.00
2023-04-26T08:46:38.751Z,30432.00
2023-04-26T08:47:38.717Z,36384.00
2023-04-26T08:48:38.695Z,75168.00
2023-04-26T08:49:38.678Z,29408.00
2023-04-26T08:50:38.696Z,28800.00
2023-04-26T08:51:38.670Z,29472.00
2023-04-26T08:52:38.627Z,29696.00
2023-04-26T08:53:38.639Z,27552.00
2023-04-26T08:54:38.611Z,26592.00
2023-04-26T08:55:38.643Z,25920.00
2023-04-26T08:56:38.616Z,27456.00
2023-04-26T08:57:38.567Z,27136.00
2023-04-26T08:58:38.583Z,26272.00
2023-04-26T08:59:38.563Z,31168.00
2023-04-26T09:00:38.578Z,33056.00
2023-04-26T09:01:38.607Z,30784.00
2023-04-26T09:02:38.611Z,27744.00
2023-04-26T09:03:38.608Z,22880.00
2023-04-26T09:04:38.816Z,24864.00
2023-04-26T09:05:38.465Z,27296.00
2023-04-26T09:06:38.477Z,27872.00
2023-04-26T09:07:38.450Z,28096.00
2023-04-26T09:08:38.456Z,28928.00
2023-04-26T09:09:38.437Z,36448.00
2023-04-26T09:10:38.404Z,31008.00
2023-04-26T09:11:38.379Z,32736.00
2023-04-26T09:12:38.382Z,32224.00
2023-04-26T09:13:38.386Z,33792.00
2023-04-26T09:14:38.358Z,34400.00
2023-04-26T09:15:38.448Z,34784.00
2023-04-26T09:16:38.362Z,34048.00
2023-04-26T09:17:38.366Z,34400.00
2023-04-26T09:18:38.298Z,63680.00
2023-04-26T09:19:38.321Z,30688.00
2023-04-26T09:20:38.271Z,28032.00
2023-04-26T09:21:38.267Z,27136.00
2023-04-26T09:22:38.246Z,27456.00
2023-04-26T09:23:38.266Z,28544.00
2023-04-26T09:24:38.224Z,30080.00
2023-04-26T09:25:38.264Z,36128.00
2023-04-26T09:26:38.208Z,32096.00
2023-04-26T09:27:38.218Z,29376.00
2023-04-26T09:28:38.176Z,29568.00
2023-04-26T09:29:38.180Z,37088.00
2023-04-26T09:30:38.179Z,100960.00
2023-04-26T09:31:38.192Z,59680.00
2023-04-26T09:32:38.146Z,63424.00
2023-04-26T09:33:38.154Z,32352.00
2023-04-26T09:34:38.098Z,28864.00
2023-04-26T09:35:38.104Z,28672.00
2023-04-26T09:36:38.100Z,34624.00
2023-04-26T09:37:47.311Z,33664.00
2023-04-26T09:38:38.053Z,41568.00
2023-04-26T09:39:38.068Z,41472.00
2023-04-26T09:40:38.042Z,37632.00
2023-04-26T09:41:38.040Z,42464.00
2023-04-26T09:42:38.015Z,80320.00
2023-04-26T09:43:37.998Z,71648.00
2023-04-26T09:44:37.970Z,74656.00
2023-04-26T09:45:37.973Z,65152.00
2023-04-26T09:46:37.999Z,39296.00
2023-04-26T09:47:38.068Z,48992.00
2023-04-26T09:48:37.934Z,43904.00
2023-04-26T09:49:37.922Z,73216.00
2023-04-26T09:50:37.909Z,80736.00
2023-04-26T09:51:37.942Z,78720.00
2023-04-26T09:52:37.891Z,73024.00
2023-04-26T09:53:37.930Z,77344.00
2023-04-26T09:54:37.909Z,80512.00
2023-04-26T09:55:37.866Z,74976.00
2023-04-26T09:56:37.872Z,79040.00
2023-04-26T09:57:37.850Z,45696.00
2023-04-26T09:58:37.902Z,76128.00
2023-04-26T09:59:37.846Z,77728.00
2023-04-26T10:00:37.941Z,49440.00
2023-04-26T10:01:38.052Z,42080.00
2023-04-26T10:02:37.805Z,43104.00
2023-04-26T10:03:38.031Z,37888.00
2023-04-26T10:04:37.834Z,63040.00
2023-04-26T10:05:37.770Z,40320.00
2023-04-26T10:06:37.772Z,45536.00
2023-04-26T10:07:37.736Z,72416.00
2023-04-26T10:08:37.727Z,41568.00
2023-04-26T10:09:37.728Z,34432.00
2023-04-26T10:10:37.736Z,34400.00
2023-04-26T10:11:38.929Z,41216.00
2023-04-26T10:12:37.687Z,34752.00
2023-04-26T10:13:37.670Z,34752.00
2023-04-26T10:14:37.659Z,33984.00
2023-04-26T10:15:37.675Z,50752.00
2023-04-26T10:16:37.659Z,48832.00
2023-04-26T10:17:37.744Z,83424.00
2023-04-26T10:18:37.618Z,45792.00
2023-04-26T10:19:37.613Z,39552.00
2023-04-26T10:20:37.580Z,48576.00
2023-04-26T10:21:37.585Z,75104.00
2023-04-26T10:22:37.585Z,55840.00
2023-04-26T10:23:37.559Z,84160.00
2023-04-26T10:24:37.562Z,58944.00
2023-04-26T10:25:37.524Z,66400.00
2023-04-26T10:26:37.528Z,96192.00
2023-04-26T10:27:37.521Z,69312.00
2023-04-26T10:28:37.610Z,77856.00
2023-04-26T10:29:37.498Z,73280.00
2023-04-26T10:30:37.525Z,87648.00
2023-04-26T10:31:37.622Z,85120.00
2023-04-26T10:32:37.474Z,65184.00
2023-04-26T10:33:37.529Z,60192.00
2023-04-26T10:34:37.442Z,31552.00
2023-04-26T10:35:37.427Z,31104.00
2023-04-26T10:36:37.458Z,31488.00
2023-04-26T10:37:37.416Z,30912.00
2023-04-26T10:38:37.402Z,31040.00
2023-04-26T10:39:37.410Z,26880.00
2023-04-26T10:40:37.381Z,27392.00
2023-04-26T10:41:37.354Z,42688.00
2023-04-26T10:42:38.123Z,27488.00
2023-04-26T10:43:37.353Z,24320.00
2023-04-26T10:44:37.314Z,20512.00
2023-04-26T10:45:37.420Z,17728.00
2023-04-26T10:46:37.357Z,15520.00
2023-04-26T10:47:37.498Z,13984.00
2023-04-26T10:48:37.272Z,13356.00
2023-04-26T10:49:37.264Z,12640.00
2023-04-26T10:50:37.244Z,11336.00
2023-04-26T10:51:37.243Z,10928.00
2023-04-26T10:52:37.218Z,11576.00
2023-04-26T10:53:37.206Z,12528.00
2023-04-26T10:54:37.221Z,14528.00
2023-04-26T10:55:37.209Z,16224.00
2023-04-26T10:56:37.184Z,19424.00
2023-04-26T10:57:37.171Z,20832.00
2023-04-26T10:58:37.142Z,21728.00
2023-04-26T10:59:51.406Z,22656.00
2023-04-26T11:00:37.151Z,23712.00
2023-04-26T11:01:37.152Z,24128.00
2023-04-26T11:02:37.236Z,22752.00
2023-04-26T11:03:37.351Z,20896.00
2023-04-26T11:04:37.117Z,21184.00
2023-04-26T11:05:37.065Z,22528.00
2023-04-26T11:06:37.065Z,23360.00
2023-04-26T11:07:37.072Z,23200.00
2023-04-26T11:08:37.036Z,71360.00
2023-04-26T11:09:37.136Z,75072.00
2023-04-26T11:10:37.030Z,54176.00
2023-04-26T11:11:36.978Z,50176.00
2023-04-26T11:12:36.969Z,59776.00
2023-04-26T11:13:36.971Z,26016.00
2023-04-26T11:14:36.955Z,21280.00
2023-04-26T11:15:36.984Z,18304.00
2023-04-26T11:16:37.046Z,17568.00
2023-04-26T11:17:36.964Z,17184.00
2023-04-26T11:18:36.899Z,17696.00
2023-04-26T11:19:36.921Z,22240.00
2023-04-26T11:20:36.874Z,82592.00
2023-04-26T11:21:36.884Z,68096.00
2023-04-26T11:22:36.873Z,37632.00
2023-04-26T11:23:36.842Z,64832.00
2023-04-26T11:24:36.944Z,79008.00
2023-04-26T11:25:36.817Z,84864.00
2023-04-26T11:26:36.819Z,88864.00
2023-04-26T11:27:36.827Z,92096.00
2023-04-26T11:28:36.767Z,87616.00
2023-04-26T11:29:36.820Z,86176.00
2023-04-26T11:30:36.873Z,93024.00
2023-04-26T11:31:36.808Z,96928.00
2023-04-26T11:32:36.844Z,75872.00
2023-04-26T11:33:36.965Z,91712.00
2023-04-26T11:34:36.741Z,88096.00
2023-04-26T11:35:36.803Z,83840.00
2023-04-26T11:36:36.716Z,84640.00
2023-04-26T11:37:37.504Z,89216.00
2023-04-26T11:38:36.700Z,94208.00
2023-04-26T11:39:36.693Z,21664.00
2023-04-26T11:40:36.677Z,22432.00
2023-04-26T11:41:36.663Z,25024.00
2023-04-26T11:42:36.648Z,96064.00
2023-04-26T11:43:36.808Z,36928.00
2023-04-26T11:44:36.611Z,46432.00
2023-04-26T11:45:36.622Z,63328.00
2023-04-26T11:46:36.627Z,27328.00
2023-04-26T11:47:36.636Z,41472.00
2023-04-26T11:48:36.574Z,22592.00
2023-04-26T11:49:36.558Z,19456.00
2023-04-26T11:50:36.547Z,22016.00
2023-04-26T11:51:36.551Z,30016.00
2023-04-26T11:52:36.514Z,96256.00
2023-04-26T11:53:36.503Z,72864.00
2023-04-26T11:54:36.520Z,86368.00
2023-04-26T11:55:36.474Z,76736.00
2023-04-26T11:56:36.518Z,54656.00
2023-04-26T11:57:36.491Z,93984.00
2023-04-26T11:58:36.599Z,89504.00
2023-04-26T11:59:36.464Z,78432.00
2023-04-26T12:00:36.446Z,85056.00
2023-04-26T12:01:36.482Z,50016.00
2023-04-26T12:02:36.569Z,33056.00
2023-04-26T12:03:36.553Z,22144.00
2023-04-26T12:04:36.489Z,32608.00
2023-04-26T12:05:36.629Z,71296.00
2023-04-26T12:06:36.364Z,68288.00
2023-04-26T12:07:36.382Z,30368.00
2023-04-26T12:08:36.366Z,71680.00
2023-04-26T12:09:36.346Z,32800.00
2023-04-26T12:10:36.318Z,34048.00
2023-04-26T12:11:36.302Z,45536.00
2023-04-26T12:12:36.315Z,34656.00
2023-04-26T12:13:36.292Z,41824.00
2023-04-26T12:14:36.325Z,44448.00
2023-04-26T12:15:36.261Z,33568.00
2023-04-26T12:16:36.265Z,34816.00
2023-04-26T12:17:36.360Z,33120.00